sensor_id;sensor_type;location;lat;lon;timestamp;pressure;altitude;pressure_sealevel;temperature;humidity
68859;BME280;55864;49.238;8.092;2022-07-29T00:00:54;99096.53;;;22.15;43.86
68859;BME280;55864;49.238;8.092;2022-07-29T00:02:54;99086.66;;;22.16;43.15
68859;BME280;55864;49.238;8.092;2022-07-29T00:04:55;99093.50;;;22.12;42.85
68859;BME280;55864;49.238;8.092;2022-07-29T00:06:57;99094.31;;;22.12;43.55
68859;BME280;55864;49.238;8.092;2022-07-29T00:08:57;99083.41;;;22.14;43.26
68859;BME280;55864;49.238;8.092;2022-07-29T00:10:58;99086.19;;;22.19;43.31
68859;BME280;55864;49.238;8.092;2022-07-29T00:12:58;99086.44;;;22.17;43.45
68859;BME280;55864;49.238;8.092;2022-07-29T00:14:59;99082.63;;;22.07;43.34
68859;BME280;55864;49.238;8.092;2022-07-29T00:16:59;99082.56;;;22.13;43.66
68859;BME280;55864;49.238;8.092;2022-07-29T00:19:00;99085.53;;;22.23;43.72
68859;BME280;55864;49.238;8.092;2022-07-29T00:21:01;99094.34;;;22.24;44.14
68859;BME280;55864;49.238;8.092;2022-07-29T00:23:02;99082.41;;;22.26;44.13
68859;BME280;55864;49.238;8.092;2022-07-29T00:25:04;99084.72;;;22.23;43.47
68859;BME280;55864;49.238;8.092;2022-07-29T00:27:04;99083.28;;;22.20;44.35
68859;BME280;55864;49.238;8.092;2022-07-29T00:29:05;99079.06;;;22.13;44.42
68859;BME280;55864;49.238;8.092;2022-07-29T00:31:05;99070.78;;;22.03;44.82
68859;BME280;55864;49.238;8.092;2022-07-29T00:33:06;99075.75;;;21.99;44.45
68859;BME280;55864;49.238;8.092;2022-07-29T00:35:08;99069.00;;;21.97;44.38
68859;BME280;55864;49.238;8.092;2022-07-29T00:37:08;99069.28;;;21.89;44.93
68859;BME280;55864;49.238;8.092;2022-07-29T00:39:12;99070.56;;;21.86;44.97
68859;BME280;55864;49.238;8.092;2022-07-29T00:41:13;99061.94;;;21.84;45.24
68859;BME280;55864;49.238;8.092;2022-07-29T00:43:14;99062.09;;;21.89;44.91
68859;BME280;55864;49.238;8.092;2022-07-29T00:45:15;99070.47;;;21.93;45.42
68859;BME280;55864;49.238;8.092;2022-07-29T00:47:15;99069.00;;;21.97;45.18
68859;BME280;55864;49.238;8.092;2022-07-29T00:49:16;99069.28;;;21.89;45.11
68859;BME280;55864;49.238;8.092;2022-07-29T00:51:17;99071.84;;;21.84;45.15
68859;BME280;55864;49.238;8.092;2022-07-29T00:53:19;99072.19;;;21.87;45.79
68859;BME280;55864;49.238;8.092;2022-07-29T00:55:21;99070.91;;;21.90;46.46
68859;BME280;55864;49.238;8.092;2022-07-29T00:57:22;99068.94;;;21.85;45.71
68859;BME280;55864;49.238;8.092;2022-07-29T00:59:23;99065.44;;;21.85;46.00
68859;BME280;55864;49.238;8.092;2022-07-29T01:01:24;99070.25;;;21.76;46.97
68859;BME280;55864;49.238;8.092;2022-07-29T01:03:24;99066.91;;;21.81;46.79
68859;BME280;55864;49.238;8.092;2022-07-29T01:05:26;99063.47;;;21.74;46.70
68859;BME280;55864;49.238;8.092;2022-07-29T01:07:28;99061.25;;;21.71;47.41
68859;BME280;55864;49.238;8.092;2022-07-29T01:09:32;99061.81;;;21.73;47.59
68859;BME280;55864;49.238;8.092;2022-07-29T01:11:35;99062.16;;;21.65;47.45
68859;BME280;55864;49.238;8.092;2022-07-29T01:13:39;99052.66;;;21.69;47.71
68859;BME280;55864;49.238;8.092;2022-07-29T01:15:43;99060.59;;;21.57;47.87
68859;BME280;55864;49.238;8.092;2022-07-29T01:17:52;99058.13;;;21.56;47.92
68859;BME280;55864;49.238;8.092;2022-07-29T01:19:59;99060.50;;;21.45;48.42
68859;BME280;55864;49.238;8.092;2022-07-29T01:22:13;99063.41;;;21.62;47.91
68859;BME280;55864;49.238;8.092;2022-07-29T01:24:30;99056.78;;;21.46;48.50
68859;BME280;55864;49.238;8.092;2022-07-29T01:26:41;99053.50;;;21.44;48.87
68859;BME280;55864;49.238;8.092;2022-07-29T01:29:03;99054.00;;;21.35;48.63
68859;BME280;55864;49.238;8.092;2022-07-29T01:31:06;99061.06;;;21.29;49.37
68859;BME280;55864;49.238;8.092;2022-07-29T01:33:11;99060.09;;;21.24;49.16
68859;BME280;55864;49.238;8.092;2022-07-29T01:35:18;99057.19;;;21.25;49.27
68859;BME280;55864;49.238;8.092;2022-07-29T01:37:21;99043.31;;;21.17;49.31
68859;BME280;55864;49.238;8.092;2022-07-29T01:39:26;99038.19;;;21.15;49.66
68859;BME280;55864;49.238;8.092;2022-07-29T01:41:31;99041.97;;;21.08;49.43
68859;BME280;55864;49.238;8.092;2022-07-29T01:43:36;99038.47;;;21.07;49.62
68859;BME280;55864;49.238;8.092;2022-07-29T01:45:41;99031.88;;;21.10;49.23
68859;BME280;55864;49.238;8.092;2022-07-29T01:47:45;99035.56;;;21.09;49.00
68859;BME280;55864;49.238;8.092;2022-07-29T01:49:50;99033.50;;;21.11;49.28
68859;BME280;55864;49.238;8.092;2022-07-29T01:51:52;99037.72;;;21.00;49.70
68859;BME280;55864;49.238;8.092;2022-07-29T01:53:59;99045.50;;;20.95;49.85
68859;BME280;55864;49.238;8.092;2022-07-29T01:56:03;99033.44;;;20.93;50.33
68859;BME280;55864;49.238;8.092;2022-07-29T01:58:05;99031.84;;;20.85;50.72
68859;BME280;55864;49.238;8.092;2022-07-29T02:00:07;99032.28;;;20.82;50.94
68859;BME280;55864;49.238;8.092;2022-07-29T02:02:18;99039.06;;;20.78;51.28
68859;BME280;55864;49.238;8.092;2022-07-29T02:04:20;99045.84;;;20.81;51.54
68859;BME280;55864;49.238;8.092;2022-07-29T02:06:22;99041.75;;;20.78;51.06
68859;BME280;55864;49.238;8.092;2022-07-29T02:08:25;99039.38;;;20.70;51.22
68859;BME280;55864;49.238;8.092;2022-07-29T02:10:29;99036.91;;;20.69;51.12
68859;BME280;55864;49.238;8.092;2022-07-29T02:12:31;99042.06;;;20.63;50.87
68859;BME280;55864;49.238;8.092;2022-07-29T02:14:35;99042.22;;;20.69;50.92
68859;BME280;55864;49.238;8.092;2022-07-29T02:16:37;99043.06;;;20.69;50.58
68859;BME280;55864;49.238;8.092;2022-07-29T02:18:43;99037.63;;;20.82;49.86
68859;BME280;55864;49.238;8.092;2022-07-29T02:20:47;99038.09;;;20.73;49.97
68859;BME280;55864;49.238;8.092;2022-07-29T02:22:50;99040.16;;;20.71;49.60
68859;BME280;55864;49.238;8.092;2022-07-29T02:24:52;99043.25;;;20.74;49.60
68859;BME280;55864;49.238;8.092;2022-07-29T02:26:55;99040.78;;;20.73;49.18
68859;BME280;55864;49.238;8.092;2022-07-29T02:28:58;99042.41;;;20.74;49.61
68859;BME280;55864;49.238;8.092;2022-07-29T02:31:00;99039.06;;;20.78;49.08
68859;BME280;55864;49.238;8.092;2022-07-29T02:33:03;99040.00;;;20.66;49.46
68859;BME280;55864;49.238;8.092;2022-07-29T02:35:07;99036.50;;;20.65;49.28
68859;BME280;55864;49.238;8.092;2022-07-29T02:37:09;99036.31;;;20.67;49.60
68859;BME280;55864;49.238;8.092;2022-07-29T02:39:11;99039.03;;;20.60;49.54
68859;BME280;55864;49.238;8.092;2022-07-29T02:41:15;99040.84;;;20.66;49.38
68859;BME280;55864;49.238;8.092;2022-07-29T02:43:17;99042.53;;;20.60;49.54
68859;BME280;55864;49.238;8.092;2022-07-29T02:45:19;99041.09;;;20.58;50.11
68859;BME280;55864;49.238;8.092;2022-07-29T02:47:23;99042.91;;;20.64;49.94
68859;BME280;55864;49.238;8.092;2022-07-29T02:49:33;99046.88;;;20.55;49.84
68859;BME280;55864;49.238;8.092;2022-07-29T02:51:41;99047.28;;;20.52;50.19
68859;BME280;55864;49.238;8.092;2022-07-29T02:53:44;99039.25;;;20.58;50.58
68859;BME280;55864;49.238;8.092;2022-07-29T02:55:51;99050.81;;;20.46;50.55
68859;BME280;55864;49.238;8.092;2022-07-29T02:58:00;99048.13;;;20.46;50.55
68859;BME280;55864;49.238;8.092;2022-07-29T03:00:04;99049.13;;;20.51;49.95
68859;BME280;55864;49.238;8.092;2022-07-29T03:02:07;99043.84;;;20.45;50.76
68859;BME280;55864;49.238;8.092;2022-07-29T03:04:09;99048.81;;;20.41;50.58
68859;BME280;55864;49.238;8.092;2022-07-29T03:06:13;99051.94;;;20.32;51.13
68859;BME280;55864;49.238;8.092;2022-07-29T03:08:16;99047.84;;;20.29;50.97
68859;BME280;55864;49.238;8.092;2022-07-29T03:10:17;99048.88;;;20.28;51.65
68859;BME280;55864;49.238;8.092;2022-07-29T03:12:19;99050.13;;;20.26;51.21
68859;BME280;55864;49.238;8.092;2022-07-29T03:14:20;99050.75;;;20.21;51.94
68859;BME280;55864;49.238;8.092;2022-07-29T03:16:21;99055.69;;;20.18;51.72
68859;BME280;55864;49.238;8.092;2022-07-29T03:18:22;99050.94;;;20.26;51.59
68859;BME280;55864;49.238;8.092;2022-07-29T03:20:23;99055.28;;;20.21;52.29
68859;BME280;55864;49.238;8.092;2022-07-29T03:22:24;99054.69;;;20.19;52.05
68859;BME280;55864;49.238;8.092;2022-07-29T03:24:30;99049.13;;;20.14;52.86
68859;BME280;55864;49.238;8.092;2022-07-29T03:26:31;99055.47;;;20.19;53.21
68859;BME280;55864;49.238;8.092;2022-07-29T03:28:31;99054.03;;;20.17;53.18
68859;BME280;55864;49.238;8.092;2022-07-29T03:30:35;99053.66;;;20.13;53.32
68859;BME280;55864;49.238;8.092;2022-07-29T03:32:36;99045.84;;;20.12;53.73
68859;BME280;55864;49.238;8.092;2022-07-29T03:34:37;99050.16;;;20.13;53.45
68859;BME280;55864;49.238;8.092;2022-07-29T03:36:38;99049.75;;;20.22;53.50
68859;BME280;55864;49.238;8.092;2022-07-29T03:38:40;99052.41;;;20.16;53.86
68859;BME280;55864;49.238;8.092;2022-07-29T03:40:49;99047.28;;;20.21;54.01
68859;BME280;55864;49.238;8.092;2022-07-29T03:42:53;99049.13;;;20.14;54.19
68859;BME280;55864;49.238;8.092;2022-07-29T03:44:55;99049.00;;;20.02;54.41
68859;BME280;55864;49.238;8.092;2022-07-29T03:47:01;99049.38;;;20.06;54.35
68859;BME280;55864;49.238;8.092;2022-07-29T03:49:04;99050.84;;;20.02;54.52
68859;BME280;55864;49.238;8.092;2022-07-29T03:51:05;99055.13;;;20.03;54.24
68859;BME280;55864;49.238;8.092;2022-07-29T03:53:05;99058.63;;;19.97;54.76
68859;BME280;55864;49.238;8.092;2022-07-29T03:55:07;99056.63;;;19.86;54.97
68859;BME280;55864;49.238;8.092;2022-07-29T03:57:11;99056.84;;;19.84;55.29
68859;BME280;55864;49.238;8.092;2022-07-29T03:59:12;99057.69;;;19.85;55.57
68859;BME280;55864;49.238;8.092;2022-07-29T04:01:14;99059.50;;;19.91;55.44
68859;BME280;55864;49.238;8.092;2022-07-29T04:03:15;99058.69;;;19.84;55.72
68859;BME280;55864;49.238;8.092;2022-07-29T04:05:16;99053.34;;;19.90;56.05
68859;BME280;55864;49.238;8.092;2022-07-29T04:07:18;99068.31;;;19.91;55.75
68859;BME280;55864;49.238;8.092;2022-07-29T04:09:18;99055.19;;;19.90;56.21
68859;BME280;55864;49.238;8.092;2022-07-29T04:11:19;99058.47;;;19.92;56.22
68859;BME280;55864;49.238;8.092;2022-07-29T04:13:21;99061.34;;;19.90;56.31
68859;BME280;55864;49.238;8.092;2022-07-29T04:15:21;99066.69;;;19.90;56.25
68859;BME280;55864;49.238;8.092;2022-07-29T04:17:22;99067.28;;;19.92;56.23
68859;BME280;55864;49.238;8.092;2022-07-29T04:19:22;99069.97;;;19.92;56.23
68859;BME280;55864;49.238;8.092;2022-07-29T04:21:23;99063.81;;;19.92;55.75
68859;BME280;55864;49.238;8.092;2022-07-29T04:23:24;99069.13;;;19.92;56.25
68859;BME280;55864;49.238;8.092;2022-07-29T04:25:24;99069.97;;;19.86;56.24
68859;BME280;55864;49.238;8.092;2022-07-29T04:27:25;99073.91;;;19.83;56.72
68859;BME280;55864;49.238;8.092;2022-07-29T04:29:27;99073.91;;;19.83;56.61
68859;BME280;55864;49.238;8.092;2022-07-29T04:31:28;99072.28;;;19.76;56.57
68859;BME280;55864;49.238;8.092;2022-07-29T04:33:28;99068.56;;;19.77;56.93
68859;BME280;55864;49.238;8.092;2022-07-29T04:35:29;99073.47;;;19.80;56.62
68859;BME280;55864;49.238;8.092;2022-07-29T04:37:30;99079.84;;;19.79;56.77
68859;BME280;55864;49.238;8.092;2022-07-29T04:39:30;99069.63;;;19.69;57.28
68859;BME280;55864;49.238;8.092;2022-07-29T04:41:31;99073.06;;;19.76;57.55
68859;BME280;55864;49.238;8.092;2022-07-29T04:43:32;99070.41;;;19.83;57.10
68859;BME280;55864;49.238;8.092;2022-07-29T04:45:34;99072.03;;;19.84;57.82
68859;BME280;55864;49.238;8.092;2022-07-29T04:47:35;99072.63;;;19.86;57.59
68859;BME280;55864;49.238;8.092;2022-07-29T04:49:37;99069.97;;;19.86;57.80
68859;BME280;55864;49.238;8.092;2022-07-29T04:51:38;99073.47;;;19.86;57.71
68859;BME280;55864;49.238;8.092;2022-07-29T04:53:38;99069.34;;;19.90;57.45
68859;BME280;55864;49.238;8.092;2022-07-29T04:55:39;99079.78;;;19.92;57.67
68859;BME280;55864;49.238;8.092;2022-07-29T04:57:40;99076.31;;;19.91;57.77
68859;BME280;55864;49.238;8.092;2022-07-29T04:59:40;99079.78;;;19.98;57.78
68859;BME280;55864;49.238;8.092;2022-07-29T05:01:42;99086.53;;;20.01;58.14
68859;BME280;55864;49.238;8.092;2022-07-29T05:03:43;99079.13;;;20.03;58.25
68859;BME280;55864;49.238;8.092;2022-07-29T05:05:43;99075.41;;;20.10;57.81
68859;BME280;55864;49.238;8.092;2022-07-29T05:07:44;99086.28;;;20.09;58.01
68859;BME280;55864;49.238;8.092;2022-07-29T05:09:44;99086.47;;;20.14;58.11
68859;BME280;55864;49.238;8.092;2022-07-29T05:11:45;99090.16;;;20.19;58.26
68859;BME280;55864;49.238;8.092;2022-07-29T05:13:46;99090.38;;;20.18;58.11
68859;BME280;55864;49.238;8.092;2022-07-29T05:15:46;99094.06;;;20.17;58.25
68859;BME280;55864;49.238;8.092;2022-07-29T05:17:48;99088.31;;;20.20;58.40
68859;BME280;55864;49.238;8.092;2022-07-29T05:19:49;99090.56;;;20.23;58.25
68859;BME280;55864;49.238;8.092;2022-07-29T05:21:50;99080.91;;;20.28;58.01
68859;BME280;55864;49.238;8.092;2022-07-29T05:23:53;99090.31;;;20.31;57.79
68859;BME280;55864;49.238;8.092;2022-07-29T05:25:54;99081.03;;;20.40;58.24
68859;BME280;55864;49.238;8.092;2022-07-29T05:27:55;99095.56;;;20.44;58.20
68859;BME280;55864;49.238;8.092;2022-07-29T05:29:56;99087.38;;;20.45;58.22
68859;BME280;55864;49.238;8.092;2022-07-29T05:31:56;99093.47;;;20.52;57.46
68859;BME280;55864;49.238;8.092;2022-07-29T05:33:58;99086.44;;;20.65;56.99
68859;BME280;55864;49.238;8.092;2022-07-29T05:35:59;99082.22;;;20.82;56.79
68859;BME280;55864;49.238;8.092;2022-07-29T05:37:59;99090.41;;;20.80;56.96
68859;BME280;55864;49.238;8.092;2022-07-29T05:40:00;99088.78;;;20.79;56.97
68859;BME280;55864;49.238;8.092;2022-07-29T05:42:01;99087.44;;;20.95;55.99
68859;BME280;55864;49.238;8.092;2022-07-29T05:44:01;99095.16;;;21.09;55.26
68859;BME280;55864;49.238;8.092;2022-07-29T05:46:02;99088.56;;;21.12;55.12
68859;BME280;55864;49.238;8.092;2022-07-29T05:48:03;99093.91;;;21.12;54.84
68859;BME280;55864;49.238;8.092;2022-07-29T05:50:06;99090.53;;;21.23;54.66
68859;BME280;55864;49.238;8.092;2022-07-29T05:52:07;99096.25;;;21.26;54.21
68859;BME280;55864;49.238;8.092;2022-07-29T05:54:08;99095.00;;;21.29;54.24
68859;BME280;55864;49.238;8.092;2022-07-29T05:56:08;99097.31;;;21.43;53.66
68859;BME280;55864;49.238;8.092;2022-07-29T05:58:09;99103.50;;;21.44;53.29
68859;BME280;55864;49.238;8.092;2022-07-29T06:00:10;99102.81;;;21.48;53.50
68859;BME280;55864;49.238;8.092;2022-07-29T06:02:14;99106.25;;;21.56;53.60
68859;BME280;55864;49.238;8.092;2022-07-29T06:04:14;99112.13;;;21.64;52.82
68859;BME280;55864;49.238;8.092;2022-07-29T06:06:16;99111.16;;;21.59;52.83
68859;BME280;55864;49.238;8.092;2022-07-29T06:08:17;99126.22;;;21.71;53.10
68859;BME280;55864;49.238;8.092;2022-07-29T06:10:18;99122.69;;;21.77;52.31
68859;BME280;55864;49.238;8.092;2022-07-29T06:12:18;99125.75;;;21.81;53.04
68859;BME280;55864;49.238;8.092;2022-07-29T06:14:19;99117.91;;;21.86;53.21
68859;BME280;55864;49.238;8.092;2022-07-29T06:16:20;99124.59;;;21.95;53.25
68859;BME280;55864;49.238;8.092;2022-07-29T06:18:20;99127.38;;;22.00;53.23
68859;BME280;55864;49.238;8.092;2022-07-29T06:20:21;99133.94;;;22.04;53.31
68859;BME280;55864;49.238;8.092;2022-07-29T06:22:23;99126.63;;;22.11;53.08
68859;BME280;55864;49.238;8.092;2022-07-29T06:24:23;99129.03;;;22.19;53.04
68859;BME280;55864;49.238;8.092;2022-07-29T06:26:24;99130.50;;;22.15;52.71
68859;BME280;55864;49.238;8.092;2022-07-29T06:28:24;99139.59;;;22.14;52.09
68859;BME280;55864;49.238;8.092;2022-07-29T06:30:25;99137.44;;;22.04;52.55
68859;BME280;55864;49.238;8.092;2022-07-29T06:32:26;99137.56;;;22.09;52.50
68859;BME280;55864;49.238;8.092;2022-07-29T06:34:26;99141.38;;;22.20;51.78
68859;BME280;55864;49.238;8.092;2022-07-29T06:36:27;99145.91;;;22.19;51.50
68859;BME280;55864;49.238;8.092;2022-07-29T06:38:29;99148.72;;;22.24;51.60
68859;BME280;55864;49.238;8.092;2022-07-29T06:40:29;99150.84;;;22.34;51.40
68859;BME280;55864;49.238;8.092;2022-07-29T06:42:30;99149.00;;;22.34;51.30
68859;BME280;55864;49.238;8.092;2022-07-29T06:44:31;99143.28;;;22.13;51.43
68859;BME280;55864;49.238;8.092;2022-07-29T06:46:31;99145.81;;;22.26;51.58
68859;BME280;55864;49.238;8.092;2022-07-29T06:48:33;99150.56;;;22.24;51.81
68859;BME280;55864;49.238;8.092;2022-07-29T06:50:34;99148.06;;;22.29;51.59
68859;BME280;55864;49.238;8.092;2022-07-29T06:52:34;99150.41;;;22.37;51.24
68859;BME280;55864;49.238;8.092;2022-07-29T06:54:36;99149.97;;;22.40;51.34
68859;BME280;55864;49.238;8.092;2022-07-29T06:56:37;99158.72;;;22.47;51.80
68859;BME280;55864;49.238;8.092;2022-07-29T06:58:37;99157.69;;;22.30;51.22
68859;BME280;55864;49.238;8.092;2022-07-29T07:00:38;99155.25;;;22.28;52.01
68859;BME280;55864;49.238;8.092;2022-07-29T07:02:38;99155.75;;;22.37;50.64
68859;BME280;55864;49.238;8.092;2022-07-29T07:04:39;99159.63;;;22.41;50.84
68859;BME280;55864;49.238;8.092;2022-07-29T07:06:39;99160.28;;;22.55;51.00
68859;BME280;55864;49.238;8.092;2022-07-29T07:08:40;99164.22;;;22.70;51.30
68859;BME280;55864;49.238;8.092;2022-07-29T07:10:42;99162.84;;;22.79;51.03
68859;BME280;55864;49.238;8.092;2022-07-29T07:12:43;99165.22;;;22.87;49.83
68859;BME280;55864;49.238;8.092;2022-07-29T07:14:43;99158.97;;;22.75;50.09
68859;BME280;55864;49.238;8.092;2022-07-29T07:16:44;99160.22;;;22.91;49.92
68859;BME280;55864;49.238;8.092;2022-07-29T07:18:44;99165.34;;;22.92;49.79
68859;BME280;55864;49.238;8.092;2022-07-29T07:20:45;99168.13;;;22.86;49.96
68859;BME280;55864;49.238;8.092;2022-07-29T07:22:45;99163.34;;;22.88;49.90
68859;BME280;55864;49.238;8.092;2022-07-29T07:24:46;99169.66;;;22.93;50.15
68859;BME280;55864;49.238;8.092;2022-07-29T07:26:48;99164.91;;;22.95;49.83
68859;BME280;55864;49.238;8.092;2022-07-29T07:28:49;99171.75;;;22.91;50.24
68859;BME280;55864;49.238;8.092;2022-07-29T07:30:50;99165.50;;;23.20;49.00
68859;BME280;55864;49.238;8.092;2022-07-29T07:32:50;99166.34;;;23.21;49.26
68859;BME280;55864;49.238;8.092;2022-07-29T07:34:51;99158.34;;;23.32;49.08
68859;BME280;55864;49.238;8.092;2022-07-29T07:36:51;99157.66;;;23.37;48.53
68859;BME280;55864;49.238;8.092;2022-07-29T07:38:52;99159.66;;;23.65;48.10
68859;BME280;55864;49.238;8.092;2022-07-29T07:40:52;99160.72;;;23.64;47.61
68859;BME280;55864;49.238;8.092;2022-07-29T07:42:54;99161.16;;;23.61;47.31
68859;BME280;55864;49.238;8.092;2022-07-29T07:44:55;99157.44;;;23.62;47.29
68859;BME280;55864;49.238;8.092;2022-07-29T07:46:55;99154.06;;;23.66;47.34
68859;BME280;55864;49.238;8.092;2022-07-29T07:48:56;99154.88;;;23.67;47.53
68859;BME280;55864;49.238;8.092;2022-07-29T07:50:56;99155.31;;;23.75;47.84
68859;BME280;55864;49.238;8.092;2022-07-29T07:52:57;99155.56;;;23.74;47.56
68859;BME280;55864;49.238;8.092;2022-07-29T07:54:57;99156.16;;;23.87;47.12
68859;BME280;55864;49.238;8.092;2022-07-29T07:56:58;99156.16;;;23.76;47.30
68859;BME280;55864;49.238;8.092;2022-07-29T07:59:00;99154.53;;;23.86;46.70
68859;BME280;55864;49.238;8.092;2022-07-29T08:01:01;99161.63;;;24.04;46.14
68859;BME280;55864;49.238;8.092;2022-07-29T08:03:01;99162.88;;;24.24;46.15
68859;BME280;55864;49.238;8.092;2022-07-29T08:05:02;99161.88;;;24.54;45.00
68859;BME280;55864;49.238;8.092;2022-07-29T08:07:03;99163.59;;;24.60;44.50
68859;BME280;55864;49.238;8.092;2022-07-29T08:09:04;99164.78;;;24.52;44.58
68859;BME280;55864;49.238;8.092;2022-07-29T08:11:04;99169.75;;;24.72;43.95
68859;BME280;55864;49.238;8.092;2022-07-29T08:13:06;99161.56;;;24.78;44.13
68859;BME280;55864;49.238;8.092;2022-07-29T08:15:09;99168.34;;;24.69;44.17
68859;BME280;55864;49.238;8.092;2022-07-29T08:17:09;99176.63;;;24.79;44.14
68859;BME280;55864;49.238;8.092;2022-07-29T08:19:10;99174.22;;;24.94;43.79
68859;BME280;55864;49.238;8.092;2022-07-29T08:21:11;99170.63;;;24.89;43.92
68859;BME280;55864;49.238;8.092;2022-07-29T08:23:11;99173.41;;;24.94;43.77
68859;BME280;55864;49.238;8.092;2022-07-29T08:25:12;99165.59;;;24.92;43.50
68859;BME280;55864;49.238;8.092;2022-07-29T08:27:13;99171.13;;;25.02;42.98
68859;BME280;55864;49.238;8.092;2022-07-29T08:29:14;99177.78;;;24.83;43.51
68859;BME280;55864;49.238;8.092;2022-07-29T08:31:16;99169.16;;;24.70;43.81
68859;BME280;55864;49.238;8.092;2022-07-29T08:33:17;99172.44;;;24.72;43.99
68859;BME280;55864;49.238;8.092;2022-07-29T08:35:17;99179.34;;;24.68;44.15
68859;BME280;55864;49.238;8.092;2022-07-29T08:37:18;99176.28;;;24.76;43.41
68859;BME280;55864;49.238;8.092;2022-07-29T08:39:18;99170.69;;;24.77;43.08
68859;BME280;55864;49.238;8.092;2022-07-29T08:41:19;99181.06;;;24.74;42.49
68859;BME280;55864;49.238;8.092;2022-07-29T08:43:20;99171.25;;;24.79;42.42
68859;BME280;55864;49.238;8.092;2022-07-29T08:45:22;99178.91;;;24.87;42.22
68859;BME280;55864;49.238;8.092;2022-07-29T08:47:25;99178.09;;;25.15;42.02
68859;BME280;55864;49.238;8.092;2022-07-29T08:49:26;99172.47;;;25.33;41.78
68859;BME280;55864;49.238;8.092;2022-07-29T08:51:26;99173.97;;;25.57;40.83
68859;BME280;55864;49.238;8.092;2022-07-29T08:53:28;99173.78;;;25.80;40.52
68859;BME280;55864;49.238;8.092;2022-07-29T08:55:29;99181.25;;;25.57;41.26
68859;BME280;55864;49.238;8.092;2022-07-29T08:57:30;99176.91;;;25.56;41.11
68859;BME280;55864;49.238;8.092;2022-07-29T08:59:34;99186.19;;;25.48;42.03
68859;BME280;55864;49.238;8.092;2022-07-29T09:01:37;99182.72;;;25.19;41.97
68859;BME280;55864;49.238;8.092;2022-07-29T09:03:40;99180.53;;;25.33;41.63
68859;BME280;55864;49.238;8.092;2022-07-29T09:05:41;99179.47;;;25.34;41.70
68859;BME280;55864;49.238;8.092;2022-07-29T09:07:42;99183.25;;;25.50;41.91
68859;BME280;55864;49.238;8.092;2022-07-29T09:09:44;99178.88;;;25.60;41.79
68859;BME280;55864;49.238;8.092;2022-07-29T09:11:45;99179.47;;;25.84;40.96
68859;BME280;55864;49.238;8.092;2022-07-29T09:13:45;99184.25;;;26.37;39.84
68859;BME280;55864;49.238;8.092;2022-07-29T09:15:46;99183.19;;;26.59;39.43
68859;BME280;55864;49.238;8.092;2022-07-29T09:17:48;99183.47;;;26.79;39.51
68859;BME280;55864;49.238;8.092;2022-07-29T09:19:51;99191.59;;;27.11;38.59
68859;BME280;55864;49.238;8.092;2022-07-29T09:21:52;99184.66;;;26.93;38.08
68859;BME280;55864;49.238;8.092;2022-07-29T09:24:05;99186.00;;;26.91;37.40
68859;BME280;55864;49.238;8.092;2022-07-29T09:26:06;99184.59;;;26.83;37.96
68859;BME280;55864;49.238;8.092;2022-07-29T09:28:07;99179.28;;;26.93;37.61
68859;BME280;55864;49.238;8.092;2022-07-29T09:30:10;99175.94;;;26.81;38.12
68859;BME280;55864;49.238;8.092;2022-07-29T09:32:10;99176.09;;;27.28;37.54
68859;BME280;55864;49.238;8.092;2022-07-29T09:34:11;99179.97;;;27.11;37.30
68859;BME280;55864;49.238;8.092;2022-07-29T09:36:14;99176.72;;;27.09;37.04
68859;BME280;55864;49.238;8.092;2022-07-29T09:38:15;99173.47;;;27.07;37.90
68859;BME280;55864;49.238;8.092;2022-07-29T09:40:17;99175.19;;;27.44;37.10
68859;BME280;55864;49.238;8.092;2022-07-29T09:42:28;99171.72;;;27.90;36.52
68859;BME280;55864;49.238;8.092;2022-07-29T09:44:41;99174.81;;;27.67;36.53
68859;BME280;55864;49.238;8.092;2022-07-29T09:46:53;99166.41;;;27.59;36.74
68859;BME280;55864;49.238;8.092;2022-07-29T09:49:07;99164.13;;;27.82;36.38
68859;BME280;55864;49.238;8.092;2022-07-29T09:51:17;99167.28;;;28.11;36.09
68859;BME280;55864;49.238;8.092;2022-07-29T09:53:33;99167.91;;;28.23;35.59
68859;BME280;55864;49.238;8.092;2022-07-29T09:55:46;99164.72;;;28.41;35.50
68859;BME280;55864;49.238;8.092;2022-07-29T09:57:47;99165.13;;;28.75;34.92
68859;BME280;55864;49.238;8.092;2022-07-29T09:59:55;99169.22;;;28.98;34.16
68859;BME280;55864;49.238;8.092;2022-07-29T10:01:56;99162.19;;;29.02;34.25
68859;BME280;55864;49.238;8.092;2022-07-29T10:03:57;99168.25;;;28.47;34.84
68859;BME280;55864;49.238;8.092;2022-07-29T10:06:06;99163.34;;;28.34;35.13
68859;BME280;55864;49.238;8.092;2022-07-29T10:08:08;99168.94;;;28.12;35.73
68859;BME280;55864;49.238;8.092;2022-07-29T10:10:09;99164.03;;;28.09;35.98
68859;BME280;55864;49.238;8.092;2022-07-29T10:12:11;99166.81;;;28.24;35.88
68859;BME280;55864;49.238;8.092;2022-07-29T10:14:12;99163.47;;;28.07;35.77
68859;BME280;55864;49.238;8.092;2022-07-29T10:16:14;99163.66;;;28.42;35.74
68859;BME280;55864;49.238;8.092;2022-07-29T10:18:14;99158.88;;;28.59;35.06
68859;BME280;55864;49.238;8.092;2022-07-29T10:20:15;99166.50;;;28.88;34.61
68859;BME280;55864;49.238;8.092;2022-07-29T10:22:16;99162.25;;;29.42;33.83
68859;BME280;55864;49.238;8.092;2022-07-29T10:24:18;99160.34;;;29.22;34.14
68859;BME280;55864;49.238;8.092;2022-07-29T10:26:20;99161.97;;;29.74;33.28
68859;BME280;55864;49.238;8.092;2022-07-29T10:28:20;99163.56;;;29.85;32.12
68859;BME280;55864;49.238;8.092;2022-07-29T10:30:23;99156.81;;;29.67;32.80
68859;BME280;55864;49.238;8.092;2022-07-29T10:32:34;99147.34;;;29.75;32.43
68859;BME280;55864;49.238;8.092;2022-07-29T10:34:54;99153.78;;;29.99;32.60
68859;BME280;55864;49.238;8.092;2022-07-29T10:37:05;99148.25;;;30.34;31.98
68859;BME280;55864;49.238;8.092;2022-07-29T10:39:16;99139.53;;;30.52;31.77
68859;BME280;55864;49.238;8.092;2022-07-29T10:41:34;99140.59;;;30.56;31.05
68859;BME280;55864;49.238;8.092;2022-07-29T10:43:41;99144.94;;;31.01;30.86
68859;BME280;55864;49.238;8.092;2022-07-29T10:45:43;99134.88;;;30.57;31.07
68859;BME280;55864;49.238;8.092;2022-07-29T10:47:44;99138.81;;;30.80;30.57